createdAt,value
2022-08-11T00:29:12.152Z,1012.63
2022-08-11T00:29:52.492Z,1012.62
2022-08-11T00:30:32.918Z,1012.65
2022-08-11T00:31:13.425Z,1012.64
2022-08-11T00:31:53.912Z,1012.65
2022-08-11T00:32:34.434Z,1012.63
2022-08-11T00:33:14.853Z,1012.68
2022-08-11T00:33:55.334Z,1012.65
2022-08-11T00:34:35.781Z,1012.65
2022-08-11T00:35:50.271Z,1012.65
2022-08-11T00:35:57.793Z,1012.63
2022-08-11T00:36:37.306Z,1012.62
2022-08-11T00:37:17.776Z,1012.63
2022-08-11T00:37:58.291Z,1012.64
2022-08-11T00:40:10.939Z,1012.63
2022-08-11T00:40:51.422Z,1012.69
2022-08-11T00:41:31.931Z,1012.68
2022-08-11T00:42:12.421Z,1012.68
2022-08-11T00:42:52.949Z,1012.67
2022-08-11T00:43:33.390Z,1012.68
2022-08-11T00:44:13.871Z,1012.67
2022-08-11T00:44:54.331Z,1012.67
2022-08-11T00:45:34.780Z,1012.63
2022-08-11T00:46:15.235Z,1012.62
2022-08-11T00:46:55.711Z,1012.62
2022-08-11T00:47:36.209Z,1012.62
2022-08-11T00:48:16.689Z,1012.63
2022-08-11T00:48:57.207Z,1012.6
2022-08-11T00:49:37.675Z,1012.65
2022-08-11T00:50:18.138Z,1012.59
2022-08-11T00:50:58.620Z,1012.62
2022-08-11T00:51:57.732Z,1012.61
2022-08-11T00:52:19.667Z,1012.6
2022-08-11T00:53:00.113Z,1012.64
2022-08-11T00:53:40.574Z,1012.65
2022-08-11T00:54:21.056Z,1012.62
2022-08-11T00:55:01.539Z,1012.63
2022-08-11T00:55:41.988Z,1012.62
2022-08-11T00:56:22.476Z,1012.65
2022-08-11T00:57:02.992Z,1012.63
2022-08-11T00:57:43.434Z,1012.66
2022-08-11T00:58:23.937Z,1012.65
2022-08-11T00:59:04.413Z,1012.68
2022-08-11T00:59:44.896Z,1012.66
2022-08-11T01:00:25.433Z,1012.68
2022-08-11T01:01:05.937Z,1012.64
2022-08-11T01:01:46.384Z,1012.65
2022-08-11T01:02:29.185Z,1012.62
2022-08-11T01:03:07.393Z,1012.62
2022-08-11T01:03:47.859Z,1012.65
2022-08-11T01:04:28.326Z,1012.61
2022-08-11T01:05:08.774Z,1012.64
2022-08-11T01:05:49.269Z,1012.65
2022-08-11T01:06:29.757Z,1012.65
2022-08-11T01:07:10.210Z,1012.64
2022-08-11T01:07:59.144Z,1012.63
2022-08-11T01:08:31.191Z,1012.61
2022-08-11T01:09:17.836Z,1012.61
2022-08-11T01:09:52.161Z,1012.63
2022-08-11T01:10:32.646Z,1012.61
2022-08-11T01:11:13.129Z,1012.61
2022-08-11T01:11:55.560Z,1012.63
2022-08-11T01:12:34.073Z,1012.62
2022-08-11T01:13:14.542Z,1012.6
2022-08-11T01:13:55.022Z,1012.6
2022-08-11T01:14:35.477Z,1012.61
2022-08-11T01:15:15.978Z,1012.61
2022-08-11T01:15:57.654Z,1012.59
2022-08-11T01:16:36.925Z,1012.6
2022-08-11T01:17:17.403Z,1012.64
2022-08-11T01:17:57.883Z,1012.64
2022-08-11T01:18:38.385Z,1012.6
2022-08-11T01:20:39.416Z,1012.62
2022-08-11T01:20:48.199Z,1012.58
2022-08-11T01:21:20.302Z,1012.62
2022-08-11T01:22:00.771Z,1012.61
2022-08-11T01:22:41.263Z,1012.64
2022-08-11T01:23:21.731Z,1012.67
2022-08-11T01:24:02.228Z,1012.64
2022-08-11T01:24:42.715Z,1012.66
2022-08-11T01:25:23.179Z,1012.67
2022-08-11T01:26:03.698Z,1012.69
2022-08-11T01:26:44.186Z,1012.67
2022-08-11T01:27:24.627Z,1012.66
2022-08-11T01:28:05.099Z,1012.69
2022-08-11T01:28:45.580Z,1012.68
2022-08-11T01:29:26.083Z,1012.64
2022-08-11T01:30:06.537Z,1012.68
2022-08-11T01:30:47.031Z,1012.66
2022-08-11T01:31:27.462Z,1012.66
2022-08-11T01:32:07.900Z,1012.65
2022-08-11T01:32:48.368Z,1012.65
2022-08-11T01:33:28.861Z,1012.67
2022-08-11T01:34:09.359Z,1012.68
2022-08-11T01:34:49.825Z,1012.67
2022-08-11T01:35:30.302Z,1012.69
2022-08-11T01:36:10.809Z,1012.64
2022-08-11T01:36:53.467Z,1012.65
2022-08-11T01:37:31.751Z,1012.64
2022-08-11T01:38:12.239Z,1012.65
2022-08-11T01:38:52.720Z,1012.66
2022-08-11T01:39:33.269Z,1012.63
2022-08-11T01:40:13.696Z,1012.63
2022-08-11T01:40:54.186Z,1012.63
2022-08-11T01:41:34.635Z,1012.66
2022-08-11T01:42:15.085Z,1012.63
2022-08-11T01:42:55.596Z,1012.63
2022-08-11T01:43:36.060Z,1012.62
2022-08-11T01:44:16.543Z,1012.61
2022-08-11T01:44:56.988Z,1012.62
2022-08-11T01:45:37.525Z,1012.63
2022-08-11T01:46:17.935Z,1012.6
2022-08-11T01:46:58.423Z,1012.61
2022-08-11T01:47:38.925Z,1012.58
2022-08-11T01:48:19.433Z,1012.59
2022-08-11T01:48:59.885Z,1012.62
2022-08-11T01:50:09.254Z,1012.59
2022-08-11T01:50:20.870Z,1012.6
2022-08-11T01:51:01.345Z,1012.6
2022-08-11T01:51:45.149Z,1012.58
2022-08-11T01:52:30.375Z,1012.61
2022-08-11T01:53:02.777Z,1012.6
2022-08-11T01:53:43.265Z,1012.64
2022-08-11T01:54:23.772Z,1012.59
2022-08-11T01:55:04.236Z,1012.67
2022-08-11T01:55:44.705Z,1012.64
2022-08-11T01:56:25.204Z,1012.62
2022-08-11T01:57:05.703Z,1012.63
2022-08-11T01:57:46.153Z,1012.65
2022-08-11T01:58:28.406Z,1012.67
2022-08-11T01:59:07.121Z,1012.64
2022-08-11T01:59:47.592Z,1012.64
2022-08-11T02:00:28.067Z,1012.64
2022-08-11T02:01:08.610Z,1012.65
2022-08-11T02:01:49.074Z,1012.65
2022-08-11T02:02:29.624Z,1012.67
2022-08-11T02:03:10.077Z,1012.7
2022-08-11T02:03:50.558Z,1012.68
2022-08-11T02:04:31.030Z,1012.71
2022-08-11T02:05:11.537Z,1012.69
2022-08-11T02:05:51.999Z,1012.71
2022-08-11T02:06:32.463Z,1012.7
2022-08-11T02:07:12.922Z,1012.66
2022-08-11T02:07:53.392Z,1012.68
2022-08-11T02:08:33.883Z,1012.69
2022-08-11T02:09:14.348Z,1012.72
2022-08-11T02:09:54.852Z,1012.69
2022-08-11T02:10:36.726Z,1012.69
2022-08-11T02:11:15.751Z,1012.7
2022-08-11T02:11:56.247Z,1012.68
2022-08-11T02:12:36.997Z,1012.67
2022-08-11T02:13:18.594Z,1012.67
2022-08-11T02:13:57.755Z,1012.68
2022-08-11T02:14:38.229Z,1012.65
2022-08-11T02:15:18.715Z,1012.64
2022-08-11T02:15:59.218Z,1012.67
2022-08-11T02:16:39.646Z,1012.66
2022-08-11T02:17:20.168Z,1012.66
2022-08-11T02:18:00.628Z,1012.64
2022-08-11T02:18:41.048Z,1012.63
2022-08-11T02:19:21.502Z,1012.62
2022-08-11T02:20:02.107Z,1012.64
2022-08-11T02:20:42.536Z,1012.63
2022-08-11T02:21:23.008Z,1012.61
2022-08-11T02:22:03.523Z,1012.58
2022-08-11T02:22:43.999Z,1012.61
2022-08-11T02:23:58.781Z,1012.6
2022-08-11T02:24:07.768Z,1012.58
2022-08-11T02:24:45.487Z,1012.6
2022-08-11T02:25:25.994Z,1012.62
2022-08-11T02:26:06.493Z,1012.58
2022-08-11T02:26:47.069Z,1012.59
2022-08-11T02:27:27.518Z,1012.58
2022-08-11T02:28:08.025Z,1012.54
2022-08-11T02:28:48.460Z,1012.59
2022-08-11T02:29:28.941Z,1012.56
2022-08-11T02:30:09.435Z,1012.59
2022-08-11T02:30:49.875Z,1012.59
2022-08-11T02:32:14.967Z,1012.6
2022-08-11T02:32:14.983Z,1012.58
2022-08-11T02:32:51.335Z,1012.63
2022-08-11T02:33:31.799Z,1012.62
2022-08-11T02:34:12.294Z,1012.62
2022-08-11T02:35:33.308Z,1012.6
2022-08-11T02:36:13.765Z,1012.62
2022-08-11T02:36:54.215Z,1012.62
2022-08-11T02:37:34.672Z,1012.63
2022-08-11T02:38:15.175Z,1012.62
2022-08-11T02:38:55.662Z,1012.62
2022-08-11T02:39:36.198Z,1012.62
2022-08-11T02:40:16.705Z,1012.58
2022-08-11T02:40:57.127Z,1012.64
2022-08-11T02:41:37.604Z,1012.56
2022-08-11T02:42:31.826Z,1012.59
2022-08-11T02:42:58.552Z,1012.59
2022-08-11T02:45:57.089Z,1012.58
2022-08-11T02:46:37.596Z,1012.57
2022-08-11T02:47:18.078Z,1012.58
2022-08-11T02:47:58.626Z,1012.55
2022-08-11T02:48:39.114Z,1012.57
2022-08-11T02:49:19.640Z,1012.6
2022-08-11T02:50:06.199Z,1012.61
2022-08-11T02:50:40.606Z,1012.58
2022-08-11T02:51:22.255Z,1012.6
2022-08-11T02:52:01.581Z,1012.6
2022-08-11T02:52:42.085Z,1012.61
2022-08-11T02:53:22.566Z,1012.61
2022-08-11T02:54:03.028Z,1012.63
2022-08-11T02:54:43.534Z,1012.61
2022-08-11T02:55:45.934Z,1012.62
2022-08-11T02:56:04.484Z,1012.62
2022-08-11T02:56:44.973Z,1012.6
2022-08-11T02:57:25.414Z,1012.65
2022-08-11T02:58:05.898Z,1012.6
2022-08-11T02:58:46.405Z,1012.65
2022-08-11T02:59:26.834Z,1012.64
2022-08-11T03:00:07.325Z,1012.65
2022-08-11T03:00:47.815Z,1012.65
2022-08-11T03:01:28.336Z,1012.66
2022-08-11T03:02:08.819Z,1012.66
2022-08-11T03:02:49.275Z,1012.67
2022-08-11T03:03:29.718Z,1012.72
2022-08-11T03:04:10.222Z,1012.69
2022-08-11T03:04:50.670Z,1012.64
2022-08-11T03:05:31.182Z,1012.65
2022-08-11T03:06:11.666Z,1012.64
2022-08-11T03:06:52.152Z,1012.64
2022-08-11T03:07:32.626Z,1012.69
2022-08-11T03:08:13.098Z,1012.67
2022-08-11T03:08:53.572Z,1012.64
2022-08-11T03:09:34.050Z,1012.65
2022-08-11T03:10:14.620Z,1012.69
2022-08-11T03:10:55.061Z,1012.68
2022-08-11T03:11:35.530Z,1012.66
2022-08-11T03:12:16.071Z,1012.62
2022-08-11T03:12:56.553Z,1012.62
2022-08-11T03:13:37.068Z,1012.64
2022-08-11T03:14:17.566Z,1012.61
2022-08-11T03:14:58.057Z,1012.61
2022-08-11T03:15:38.670Z,1012.6
2022-08-11T03:16:19.001Z,1012.58
2022-08-11T03:16:59.439Z,1012.61
2022-08-11T03:17:39.901Z,1012.61
2022-08-11T03:18:20.382Z,1012.61
2022-08-11T03:19:00.863Z,1012.6
2022-08-11T03:19:41.342Z,1012.62
2022-08-11T03:20:21.836Z,1012.62
2022-08-11T03:21:02.310Z,1012.58
2022-08-11T03:21:52.462Z,1012.6
2022-08-11T03:22:23.293Z,1012.59
2022-08-11T03:23:03.779Z,1012.59
2022-08-11T03:23:44.277Z,1012.58
2022-08-11T03:24:24.805Z,1012.55
2022-08-11T03:25:07.134Z,1012.58
2022-08-11T03:25:45.799Z,1012.57
2022-08-11T03:26:26.271Z,1012.57
2022-08-11T03:27:06.772Z,1012.55
2022-08-11T03:27:47.258Z,1012.58
2022-08-11T03:28:27.689Z,1012.58
2022-08-11T03:29:08.152Z,1012.54
2022-08-11T03:29:48.630Z,1012.53
2022-08-11T03:30:29.080Z,1012.6
2022-08-11T03:31:09.545Z,1012.54
2022-08-11T03:31:50.066Z,1012.55
2022-08-11T03:32:30.520Z,1012.55
2022-08-11T03:33:10.991Z,1012.54
2022-08-11T03:33:51.477Z,1012.56
2022-08-11T03:34:31.953Z,1012.53
2022-08-11T03:35:14.935Z,1012.57
2022-08-11T03:35:52.902Z,1012.55
2022-08-11T03:36:33.378Z,1012.53
2022-08-11T03:37:17.456Z,1012.55
2022-08-11T03:37:54.348Z,1012.53
2022-08-11T03:38:34.814Z,1012.55
2022-08-11T03:39:15.328Z,1012.52
2022-08-11T03:39:56.511Z,1012.58
2022-08-11T03:40:36.268Z,1012.54
2022-08-11T03:41:49.550Z,1012.53
2022-08-11T03:42:02.964Z,1012.54
2022-08-11T03:43:18.251Z,1012.58
2022-08-11T03:43:58.954Z,1012.6
2022-08-11T03:44:39.207Z,1012.61
2022-08-11T03:45:19.711Z,1012.58
2022-08-11T03:46:00.186Z,1012.65
2022-08-11T03:46:40.692Z,1012.65
2022-08-11T03:47:21.188Z,1012.59
2022-08-11T03:48:42.151Z,1012.62
2022-08-11T03:49:22.623Z,1012.64
2022-08-11T03:50:03.092Z,1012.63
2022-08-11T03:50:43.607Z,1012.61
2022-08-11T03:51:24.123Z,1012.62
2022-08-11T03:52:04.682Z,1012.63
2022-08-11T03:52:45.188Z,1012.64
2022-08-11T03:53:25.710Z,1012.63
2022-08-11T03:54:06.258Z,1012.61
2022-08-11T03:54:46.723Z,1012.59
2022-08-11T03:55:27.224Z,1012.61
2022-08-11T03:56:07.699Z,1012.57
2022-08-11T03:57:28.655Z,1012.59
2022-08-11T03:58:09.172Z,1012.56
2022-08-11T03:58:49.633Z,1012.59
2022-08-11T03:59:30.141Z,1012.6
2022-08-11T04:00:10.706Z,1012.55
2022-08-11T04:00:51.154Z,1012.56
2022-08-11T04:01:31.684Z,1012.59
2022-08-11T04:02:12.144Z,1012.63
2022-08-11T04:02:52.626Z,1012.6
2022-08-11T04:03:33.128Z,1012.62
2022-08-11T04:04:13.631Z,1012.6
2022-08-11T04:04:54.133Z,1012.65
2022-08-11T04:05:34.684Z,1012.62
2022-08-11T04:06:15.162Z,1012.67
2022-08-11T04:06:55.668Z,1012.67
2022-08-11T04:07:36.164Z,1012.66
2022-08-11T04:08:16.623Z,1012.64
2022-08-11T04:09:37.600Z,1012.62
2022-08-11T04:10:18.101Z,1012.64
2022-08-11T04:10:58.563Z,1012.62
2022-08-11T04:11:39.078Z,1012.6
2022-08-11T04:12:36.221Z,1012.65
2022-08-11T04:13:00.120Z,1012.65
2022-08-11T04:13:40.577Z,1012.6
2022-08-11T04:14:21.060Z,1012.63
2022-08-11T04:15:01.549Z,1012.58
2022-08-11T04:15:41.975Z,1012.58
2022-08-11T04:16:22.484Z,1012.62
2022-08-11T04:17:02.999Z,1012.62
2022-08-11T04:17:43.493Z,1012.6
2022-08-11T04:18:23.975Z,1012.57
2022-08-11T04:19:04.459Z,1012.58
2022-08-11T04:19:44.935Z,1012.62
2022-08-11T04:20:25.421Z,1012.62
2022-08-11T04:21:05.902Z,1012.62
2022-08-11T04:21:46.415Z,1012.63
2022-08-11T04:22:26.891Z,1012.64
2022-08-11T04:23:07.407Z,1012.63
2022-08-11T04:24:12.731Z,1012.63
2022-08-11T04:24:35.095Z,1012.64
2022-08-11T04:25:08.906Z,1012.64
2022-08-11T04:25:51.197Z,1012.63
2022-08-11T04:26:29.883Z,1012.65
2022-08-11T04:27:10.454Z,1012.68
2022-08-11T04:28:31.541Z,1012.63
2022-08-11T04:29:12.029Z,1012.63
2022-08-11T04:30:02.053Z,1012.64
2022-08-11T04:30:32.913Z,1012.63
2022-08-11T04:31:13.402Z,1012.64
2022-08-11T04:31:53.920Z,1012.63
2022-08-11T04:32:34.407Z,1012.63
2022-08-11T04:33:14.885Z,1012.62
2022-08-11T04:33:56.529Z,1012.65
2022-08-11T04:34:35.873Z,1012.62
2022-08-11T04:35:16.368Z,1012.64
2022-08-11T04:35:56.849Z,1012.63
2022-08-11T04:36:37.344Z,1012.66
2022-08-11T04:37:17.837Z,1012.67
2022-08-11T04:37:58.319Z,1012.68
2022-08-11T04:38:38.790Z,1012.66
2022-08-11T04:39:19.311Z,1012.67
2022-08-11T04:39:59.761Z,1012.66
2022-08-11T04:40:40.266Z,1012.64
2022-08-11T04:41:20.770Z,1012.67
2022-08-11T04:42:01.255Z,1012.67
2022-08-11T04:42:41.739Z,1012.62
2022-08-11T04:43:22.212Z,1012.65
2022-08-11T04:44:05.405Z,1012.67
2022-08-11T04:44:43.140Z,1012.68
2022-08-11T04:45:23.619Z,1012.69
2022-08-11T04:46:04.103Z,1012.69
2022-08-11T04:47:25.122Z,1012.69
2022-08-11T04:48:05.617Z,1012.72
2022-08-11T04:48:46.160Z,1012.68
2022-08-11T04:49:33.121Z,1012.7
2022-08-11T04:50:07.115Z,1012.74
2022-08-11T04:51:04.023Z,1012.74
2022-08-11T04:51:28.077Z,1012.74
2022-08-11T04:52:08.592Z,1012.78
2022-08-11T04:52:49.032Z,1012.77
2022-08-11T04:53:29.524Z,1012.76
2022-08-11T04:54:10.014Z,1012.81
2022-08-11T04:54:50.500Z,1012.82
2022-08-11T04:55:30.970Z,1012.82
2022-08-11T04:56:11.462Z,1012.77
2022-08-11T04:56:52.520Z,1012.82
2022-08-11T04:57:33.004Z,1012.85
2022-08-11T04:58:13.458Z,1012.88
2022-08-11T04:58:53.958Z,1012.81
2022-08-11T04:59:34.459Z,1012.83
2022-08-11T05:00:14.931Z,1012.86
2022-08-11T05:00:55.434Z,1012.82
2022-08-11T05:01:37.429Z,1012.84
2022-08-11T05:02:17.224Z,1012.87
2022-08-11T05:02:56.890Z,1012.89
2022-08-11T05:03:37.390Z,1012.88
2022-08-11T05:04:17.878Z,1012.92
2022-08-11T05:04:58.352Z,1012.91
2022-08-11T05:06:19.375Z,1012.89
2022-08-11T05:06:59.971Z,1012.92
2022-08-11T05:07:40.416Z,1012.9
2022-08-11T05:08:23.997Z,1012.96
2022-08-11T05:09:01.417Z,1012.93
2022-08-11T05:09:41.867Z,1012.97
2022-08-11T05:10:22.374Z,1013
2022-08-11T05:11:02.924Z,1012.95
2022-08-11T05:11:43.338Z,1013.01
2022-08-11T05:12:23.798Z,1013
2022-08-11T05:13:04.311Z,1012.99
2022-08-11T05:13:44.777Z,1012.97
2022-08-11T05:14:25.316Z,1013.01
2022-08-11T05:15:05.770Z,1013.03
2022-08-11T05:15:49.542Z,1013.04
2022-08-11T05:16:26.741Z,1012.95
2022-08-11T05:17:07.261Z,1013.05
2022-08-11T05:17:47.773Z,1012.99
2022-08-11T05:18:28.248Z,1012.95
2022-08-11T05:19:08.730Z,1012.94
2022-08-11T05:19:49.196Z,1012.94
2022-08-11T05:20:29.804Z,1012.98
2022-08-11T05:21:10.201Z,1012.98
2022-08-11T05:21:50.755Z,1012.93
2022-08-11T05:22:31.204Z,1012.96
2022-08-11T05:23:11.697Z,1012.97
2022-08-11T05:23:52.095Z,1012.93
2022-08-11T05:24:32.575Z,1012.94
2022-08-11T05:25:13.084Z,1012.98
2022-08-11T05:26:09.051Z,1012.95
2022-08-11T05:27:14.670Z,1012.95
2022-08-11T05:27:55.203Z,1012.98
2022-08-11T05:28:35.660Z,1012.99
2022-08-11T05:29:19.631Z,1013.02
2022-08-11T05:29:57.454Z,1013
2022-08-11T05:30:37.958Z,1013.03
2022-08-11T05:34:06.992Z,1013.09
2022-08-11T05:34:47.667Z,1013.09
2022-08-11T05:35:59.966Z,1013.09
2022-08-11T05:36:08.978Z,1013.12
2022-08-11T05:36:49.575Z,1013.07
2022-08-11T05:37:30.423Z,1013.08
2022-08-11T05:38:11.156Z,1013.11
2022-08-11T05:38:51.701Z,1013.07
2022-08-11T05:39:33.748Z,1013.11
2022-08-11T05:40:12.928Z,1013.14
2022-08-11T05:40:53.492Z,1013.13
2022-08-11T05:41:34.004Z,1013.15
2022-08-11T05:42:20.818Z,1013.2
2022-08-11T05:42:55.030Z,1013.15
2022-08-11T05:43:35.568Z,1013.15
2022-08-11T05:44:19.518Z,1013.17
2022-08-11T05:44:56.635Z,1013.19
2022-08-11T05:45:42.611Z,1013.19
2022-08-11T05:46:17.811Z,1013.18
2022-08-11T05:46:58.292Z,1013.2
2022-08-11T05:47:38.801Z,1013.24
2022-08-11T05:48:19.405Z,1013.22
2022-08-11T05:48:59.992Z,1013.22
2022-08-11T05:49:41.528Z,1013.25
2022-08-11T05:50:28.931Z,1013.23
2022-08-11T05:51:02.706Z,1013.27
2022-08-11T05:51:52.280Z,1013.24
2022-08-11T05:52:30.921Z,1013.23
2022-08-11T05:53:05.113Z,1013.23
2022-08-11T06:31:21.309Z,1013.2
2022-08-11T06:32:01.797Z,1013.21
2022-08-11T06:32:42.345Z,1013.22
2022-08-11T06:33:22.820Z,1013.2
2022-08-11T06:34:03.415Z,1013.23
2022-08-11T06:34:43.879Z,1013.22
2022-08-11T06:35:24.431Z,1013.2
2022-08-11T06:36:04.932Z,1013.22
2022-08-11T06:36:45.423Z,1013.24
2022-08-11T06:37:25.968Z,1013.23
2022-08-11T06:38:06.493Z,1013.19
2022-08-11T06:40:26.762Z,1013.25
2022-08-11T06:41:07.277Z,1013.26
2022-08-11T06:41:48.680Z,1013.24
2022-08-11T06:42:29.174Z,1013.25
2022-08-11T06:43:09.699Z,1013.26
2022-08-11T06:43:51.044Z,1013.21
2022-08-11T06:44:30.856Z,1013.24
2022-08-11T06:45:11.276Z,1013.21
2022-08-11T06:48:26.012Z,1013.23
2022-08-11T06:49:06.685Z,1013.26
2022-08-11T06:49:47.144Z,1013.24
2022-08-11T06:50:27.620Z,1013.3
2022-08-11T06:51:08.118Z,1013.27
2022-08-11T06:51:48.625Z,1013.23
2022-08-11T06:52:45.210Z,1013.26
2022-08-11T06:53:09.596Z,1013.26
2022-08-11T06:53:57.566Z,1013.28
2022-08-11T06:57:28.683Z,1013.3
2022-08-11T06:57:44.419Z,1013.34
2022-08-11T06:58:24.895Z,1013.32
2022-08-11T06:59:05.465Z,1013.29
2022-08-11T06:59:45.981Z,1013.3
2022-08-11T07:00:26.456Z,1013.27
2022-08-11T07:01:47.837Z,1013.31
2022-08-11T07:02:31.173Z,1013.24
2022-08-11T07:05:58.990Z,1013.2
2022-08-11T07:06:41.721Z,1013.18
2022-08-11T07:07:20.613Z,1013.18
2022-08-11T07:08:01.605Z,1013.15
2022-08-11T07:08:41.243Z,1013.19
2022-08-11T07:09:21.727Z,1013.16
2022-08-11T07:10:02.273Z,1013.15
2022-08-11T07:11:23.355Z,1013.16
2022-08-11T07:12:03.894Z,1013.17
2022-08-11T07:12:44.409Z,1013.17
2022-08-11T07:13:38.310Z,1013.14
2022-08-11T07:14:06.225Z,1013.15
2022-08-11T07:14:46.799Z,1013.13
2022-08-11T07:15:47.303Z,1013.13
2022-08-11T07:16:09.145Z,1013.13
2022-08-11T07:16:48.555Z,1013.17
2022-08-11T07:17:29.052Z,1013.13
2022-08-11T07:18:09.576Z,1013.14
2022-08-11T07:19:30.802Z,1013.12
2022-08-11T07:20:11.285Z,1013.13
2022-08-11T07:20:51.841Z,1013.13
2022-08-11T07:21:42.824Z,1013.14
2022-08-11T07:22:12.968Z,1013.17
2022-08-11T07:22:55.276Z,1013.14
2022-08-11T07:23:35.803Z,1013.12
2022-08-11T07:24:16.301Z,1013.16
2022-08-11T07:24:59.028Z,1013.11
2022-08-11T07:27:57.281Z,1013.12
2022-08-11T07:28:37.744Z,1013.15
2022-08-11T07:29:18.275Z,1013.14
2022-08-11T07:29:58.738Z,1013.15
2022-08-11T07:30:39.274Z,1013.12
2022-08-11T07:31:19.855Z,1013.15
2022-08-11T07:32:00.407Z,1013.14
2022-08-11T07:32:40.959Z,1013.11
2022-08-11T07:34:04.987Z,1013.15
2022-08-11T07:34:06.074Z,1013.13
2022-08-11T07:34:42.396Z,1013.15
2022-08-11T07:35:22.848Z,1013.12
2022-08-11T07:36:03.331Z,1013.15
2022-08-11T07:36:43.893Z,1013.13
2022-08-11T07:37:24.560Z,1013.11
2022-08-11T07:38:07.026Z,1013.12
2022-08-11T07:38:47.402Z,1013.08
2022-08-11T07:39:27.297Z,1013.09
2022-08-11T07:40:08.106Z,1013.1
2022-08-11T07:40:48.675Z,1013.16
2022-08-11T07:41:29.195Z,1013.17
2022-08-11T07:42:09.730Z,1013.12
2022-08-11T07:42:50.335Z,1013.15
2022-08-11T07:43:30.885Z,1013.12
2022-08-11T07:44:11.538Z,1013.11
2022-08-11T07:44:52.103Z,1013.09
2022-08-11T07:45:32.716Z,1013.06
2022-08-11T07:46:13.083Z,1013.06
2022-08-11T07:46:53.645Z,1013.08
2022-08-11T07:47:34.171Z,1013.09
2022-08-11T07:48:14.705Z,1013.06
2022-08-11T07:48:55.195Z,1013.06
2022-08-11T07:49:35.710Z,1013.02
2022-08-11T07:50:56.725Z,1013.02
2022-08-11T07:53:58.094Z,1013.02
2022-08-11T07:54:35.841Z,1013.07
2022-08-11T07:55:17.164Z,1013.02
2022-08-11T07:55:57.636Z,1013.04
2022-08-11T07:56:54.681Z,1013.02
2022-08-11T07:57:24.311Z,1013.05
2022-08-11T07:58:14.874Z,1013
2022-08-11T07:58:45.851Z,1013.01
2022-08-11T07:59:20.104Z,1013.03
2022-08-11T08:00:03.559Z,1013.02
2022-08-11T08:00:41.073Z,1013.01
2022-08-11T08:01:22.867Z,1012.96
2022-08-11T08:02:02.169Z,1012.98
2022-08-11T08:02:42.653Z,1012.98
2022-08-11T08:03:23.112Z,1012.99
2022-08-11T08:04:03.630Z,1013.02
2022-08-11T08:04:47.197Z,1013.02
2022-08-11T08:05:24.695Z,1013.01
2022-08-11T08:06:05.237Z,1013.02
2022-08-11T08:06:45.715Z,1013
2022-08-11T08:07:26.223Z,1013.02
2022-08-11T08:08:06.780Z,1012.98
2022-08-11T08:08:47.291Z,1012.99
2022-08-11T08:09:27.817Z,1013.01
2022-08-11T08:10:08.330Z,1012.95
2022-08-11T08:10:48.901Z,1012.98
2022-08-11T08:11:29.456Z,1012.98
2022-08-11T08:12:09.925Z,1013.03
2022-08-11T08:12:50.501Z,1013.02
2022-08-11T08:13:31.079Z,1013.02
2022-08-11T08:14:12.235Z,1013.08
2022-08-11T08:14:52.751Z,1013.04
2022-08-11T08:15:33.361Z,1013.02
2022-08-11T08:16:13.832Z,1013.04
2022-08-11T08:16:54.328Z,1013.04
2022-08-11T08:17:34.827Z,1013.04
2022-08-11T08:18:55.869Z,1013.05
2022-08-11T08:19:36.391Z,1013.06
2022-08-11T08:20:16.862Z,1013.04
2022-08-11T08:20:57.439Z,1013.02
2022-08-11T08:21:37.876Z,1013.01
2022-08-11T08:22:34.685Z,1013.07
2022-08-11T08:22:58.969Z,1013.04
2022-08-11T08:23:39.489Z,1012.99
2022-08-11T08:24:19.982Z,1013
2022-08-11T08:25:00.539Z,1013
2022-08-11T08:25:41.131Z,1012.99
2022-08-11T08:26:22.253Z,1013.01
2022-08-11T08:27:02.738Z,1013.01
2022-08-11T08:27:43.256Z,1013.01
2022-08-11T08:28:23.781Z,1013.02
2022-08-11T08:29:04.501Z,1013.03
2022-08-11T08:32:04.179Z,1013.04
2022-08-11T08:32:45.357Z,1013.02
2022-08-11T08:33:26.452Z,1013.03
2022-08-11T08:34:07.288Z,1013.07
2022-08-11T08:34:48.609Z,1013.04
2022-08-11T08:35:32.641Z,1013.06
2022-08-11T08:36:09.694Z,1013.08
2022-08-11T08:36:50.176Z,1013.05
2022-08-11T08:37:46.487Z,1013.08
2022-08-11T08:38:11.405Z,1013.04
2022-08-11T08:38:51.972Z,1013.06
2022-08-11T08:39:33.146Z,1013.09
2022-08-11T08:40:13.625Z,1013.05
2022-08-11T08:40:56.168Z,1013.06
2022-08-11T08:41:34.788Z,1013
2022-08-11T08:42:15.357Z,1013.04
2022-08-11T08:42:55.880Z,1013.07
2022-08-11T08:45:08.999Z,1013.07
2022-08-11T08:45:49.597Z,1013.05
2022-08-11T08:46:30.096Z,1013.13
2022-08-11T08:47:11.287Z,1013.1
2022-08-11T08:47:53.318Z,1013.07
2022-08-11T08:48:32.369Z,1013.06
2022-08-11T08:49:12.894Z,1013.04
2022-08-11T08:49:53.609Z,1013.03
2022-08-11T08:50:34.310Z,1013.04
2022-08-11T08:51:14.924Z,1013.02
2022-08-11T08:51:58.828Z,1013.07
2022-08-11T08:52:39.203Z,1013.03
2022-08-11T08:53:17.011Z,1013
2022-08-11T08:56:16.109Z,1013.03
2022-08-11T08:56:56.663Z,1013.07
2022-08-11T08:57:39.543Z,1013.02
2022-08-11T08:58:20.932Z,1013.02
2022-08-11T08:59:01.399Z,1013.02
2022-08-11T08:59:47.861Z,1013.03
2022-08-11T09:00:23.714Z,1013.03
2022-08-11T09:01:03.543Z,1013.03
2022-08-11T09:01:44.029Z,1013.04
2022-08-11T09:02:34.425Z,1013.05
2022-08-11T09:03:23.175Z,1013.07
2022-08-11T09:04:04.304Z,1013.06
2022-08-11T09:04:27.915Z,1013.04
2022-08-11T09:07:42.685Z,1013.07
2022-08-11T09:08:23.558Z,1013.06
2022-08-11T09:09:04.209Z,1013.08
2022-08-11T09:09:44.820Z,1013.05
2022-08-11T09:10:25.334Z,1013.09
2022-08-11T09:11:08.382Z,1013.11
2022-08-11T09:12:35.671Z,1013.12
2022-08-11T09:13:07.527Z,1013.09
2022-08-11T09:16:37.265Z,1013.07
2022-08-11T09:17:17.757Z,1013.06
2022-08-11T09:17:58.325Z,1013.08
2022-08-11T09:18:38.799Z,1013.06
2022-08-11T09:19:59.854Z,1013.03
2022-08-11T09:20:40.539Z,1013.05
2022-08-11T09:21:25.333Z,1013.01
2022-08-11T09:22:01.629Z,1013.07
2022-08-11T09:22:42.160Z,1013.04
2022-08-11T09:24:06.570Z,1013.02
2022-08-11T09:24:07.590Z,1012.97
2022-08-11T09:24:43.749Z,1012.99
2022-08-11T09:25:24.257Z,1012.97
2022-08-11T09:26:04.743Z,1012.98
2022-08-11T09:26:46.234Z,1013.01
2022-08-11T09:27:26.747Z,1012.96
2022-08-11T09:28:07.263Z,1012.98
2022-08-11T09:28:47.719Z,1013.05
2022-08-11T09:29:28.338Z,1013.07
2022-08-11T09:30:08.815Z,1013.06
2022-08-11T09:30:49.288Z,1013.02
2022-08-11T09:31:29.812Z,1013.03
2022-08-11T09:32:10.397Z,1013.02
2022-08-11T09:32:50.984Z,1013.02
2022-08-11T09:33:31.503Z,1013.02
2022-08-11T09:34:11.975Z,1013
2022-08-11T09:34:52.561Z,1012.97
2022-08-11T09:35:33.188Z,1013
2022-08-11T09:36:13.617Z,1012.98
2022-08-11T09:36:54.054Z,1012.97
2022-08-11T09:37:55.108Z,1012.93
2022-08-11T09:38:15.100Z,1012.97
2022-08-11T09:38:55.562Z,1012.96
2022-08-11T09:39:36.128Z,1012.94
2022-08-11T09:40:16.590Z,1012.96
2022-08-11T09:40:58.170Z,1012.97
2022-08-11T09:41:55.974Z,1012.96
2022-08-11T09:42:23.297Z,1012.94
2022-08-11T09:43:00.705Z,1012.94
2022-08-11T09:43:41.404Z,1012.91
2022-08-11T09:44:21.905Z,1012.95
2022-08-11T09:45:03.293Z,1013
2022-08-11T09:45:43.850Z,1012.94
2022-08-11T09:46:24.414Z,1012.94
2022-08-11T09:47:04.893Z,1012.9
2022-08-11T09:47:45.444Z,1012.9
2022-08-11T09:48:25.941Z,1012.84
2022-08-11T09:49:46.931Z,1012.91
2022-08-11T09:50:27.427Z,1012.89
2022-08-11T09:51:07.969Z,1012.87
2022-08-11T09:51:59.785Z,1012.88
2022-08-11T09:52:31.838Z,1012.87
2022-08-11T09:53:34.737Z,1012.84
2022-08-11T09:54:02.772Z,1012.83
2022-08-11T09:54:37.438Z,1012.84
2022-08-11T09:55:25.911Z,1012.83
2022-08-11T09:56:06.316Z,1012.87
2022-08-11T09:56:49.832Z,1012.84
2022-08-11T09:57:33.479Z,1012.62
2022-08-11T09:58:42.228Z,1012.87
2022-08-11T10:00:39.678Z,1012.78
2022-08-11T10:01:21.173Z,1012.83
2022-08-11T10:02:03.509Z,1012.81
2022-08-11T10:02:43.878Z,1012.8
2022-08-11T10:03:24.697Z,1012.82
2022-08-11T10:04:05.711Z,1012.82
2022-08-11T10:04:46.782Z,1012.79
2022-08-11T10:05:28.111Z,1012.77